createdAt,value
2023-03-17T00:00:08.279Z,53.13
2023-03-17T00:02:34.602Z,52.94
2023-03-17T00:05:00.965Z,53.16
2023-03-17T00:07:27.582Z,53.29
2023-03-17T00:09:53.890Z,53.10
2023-03-17T00:12:21.032Z,52.85
2023-03-17T00:14:47.474Z,53.25
2023-03-17T00:17:14.233Z,52.87
2023-03-17T00:19:41.414Z,52.60
2023-03-17T00:22:08.229Z,52.68
2023-03-17T00:24:34.591Z,52.93
2023-03-17T00:27:00.952Z,52.54
2023-03-17T00:29:28.072Z,52.44
2023-03-17T00:31:54.670Z,52.64
2023-03-17T00:34:21.484Z,52.70
2023-03-17T00:36:48.105Z,53.02
2023-03-17T00:39:17.613Z,52.65
2023-03-17T00:41:44.225Z,52.79
2023-03-17T00:44:10.586Z,52.76
2023-03-17T00:46:38.261Z,52.41
2023-03-17T00:49:05.444Z,52.85
2023-03-17T00:51:32.338Z,52.54
2023-03-17T00:53:58.673Z,52.26
2023-03-17T00:56:25.064Z,52.40
2023-03-17T00:58:51.690Z,52.08
2023-03-17T01:01:18.623Z,52.50
2023-03-17T01:03:45.017Z,52.11
2023-03-17T01:06:11.390Z,52.13
2023-03-17T01:08:39.193Z,52.35
2023-03-17T01:11:05.551Z,52.28
2023-03-17T01:13:31.864Z,52.65
2023-03-17T01:15:58.270Z,52.49
2023-03-17T01:18:24.668Z,52.34
2023-03-17T01:20:51.020Z,52.20
2023-03-17T01:23:17.802Z,52.40
2023-03-17T01:25:44.688Z,52.30
2023-03-17T01:28:11.033Z,51.90
2023-03-17T01:30:40.363Z,51.79
2023-03-17T01:33:06.802Z,51.91
2023-03-17T01:35:33.189Z,51.81
2023-03-17T01:37:59.589Z,51.82
2023-03-17T01:40:26.289Z,51.74
2023-03-17T01:42:53.581Z,51.62
2023-03-17T01:45:19.895Z,51.54
2023-03-17T01:47:46.646Z,51.14
2023-03-17T01:50:13.227Z,51.13
2023-03-17T01:52:39.798Z,51.33
2023-03-17T01:55:07.084Z,50.72
2023-03-17T01:57:33.453Z,50.88
2023-03-17T01:59:59.806Z,50.68
2023-03-17T02:02:26.143Z,50.56
2023-03-17T02:04:52.471Z,50.36
2023-03-17T02:07:18.783Z,50.68
2023-03-17T02:09:46.209Z,50.54
2023-03-17T02:12:13.581Z,50.47
2023-03-17T02:14:39.919Z,50.50
2023-03-17T02:17:06.282Z,50.00
2023-03-17T02:19:32.778Z,50.09
2023-03-17T02:21:59.194Z,49.92
2023-03-17T02:24:25.511Z,49.83
2023-03-17T02:26:51.837Z,49.87
2023-03-17T02:29:18.141Z,50.16
2023-03-17T02:31:44.820Z,49.67
2023-03-17T02:34:11.173Z,49.57
2023-03-17T02:36:37.786Z,49.63
2023-03-17T02:39:04.504Z,49.66
2023-03-17T02:41:30.812Z,49.48
2023-03-17T02:43:57.130Z,49.50
2023-03-17T02:46:23.553Z,48.97
2023-03-17T02:48:49.903Z,48.39
2023-03-17T02:51:16.321Z,48.70
2023-03-17T02:53:42.617Z,48.86
2023-03-17T02:56:09.911Z,48.85
2023-03-17T02:58:36.254Z,48.97
2023-03-17T03:01:03.662Z,48.70
2023-03-17T03:03:29.992Z,48.40
2023-03-17T03:05:57.655Z,48.82
2023-03-17T03:08:23.976Z,48.78
2023-03-17T03:10:50.669Z,48.69
2023-03-17T03:13:17.472Z,48.67
2023-03-17T03:15:43.930Z,48.31
2023-03-17T03:18:10.279Z,48.25
2023-03-17T03:20:36.686Z,48.47
2023-03-17T03:23:03.100Z,48.43
2023-03-17T03:25:29.517Z,48.43
2023-03-17T03:27:56.003Z,48.39
2023-03-17T03:30:22.368Z,48.75
2023-03-17T03:32:48.777Z,48.51
2023-03-17T03:35:15.559Z,48.89
2023-03-17T03:37:41.909Z,48.84
2023-03-17T03:40:09.181Z,48.38
2023-03-17T03:42:35.558Z,48.89
2023-03-17T03:45:01.919Z,49.27
2023-03-17T03:47:28.239Z,49.47
2023-03-17T03:49:54.571Z,49.53
2023-03-17T03:52:21.157Z,49.45
2023-03-17T03:54:47.461Z,49.26
2023-03-17T03:57:13.811Z,49.82
2023-03-17T03:59:40.134Z,49.43
2023-03-17T04:02:09.345Z,49.72
2023-03-17T04:04:36.146Z,49.72
2023-03-17T04:07:02.519Z,49.86
2023-03-17T04:09:28.879Z,49.57
2023-03-17T04:11:55.561Z,49.55
2023-03-17T04:14:21.863Z,49.57
2023-03-17T04:16:48.181Z,49.89
2023-03-17T04:19:15.457Z,49.49
2023-03-17T04:21:42.380Z,49.51
2023-03-17T04:24:09.146Z,49.75
2023-03-17T04:26:35.460Z,49.64
2023-03-17T04:29:01.787Z,49.78
2023-03-17T04:31:28.183Z,49.82
2023-03-17T04:33:54.599Z,50.05
2023-03-17T04:36:20.972Z,50.05
2023-03-17T04:38:47.643Z,49.85
2023-03-17T04:41:14.733Z,50.19
2023-03-17T04:43:42.073Z,50.07
2023-03-17T04:46:08.478Z,50.50
2023-03-17T04:48:34.804Z,50.29
2023-03-17T04:51:01.294Z,50.49
2023-03-17T04:53:27.629Z,50.67
2023-03-17T04:55:53.945Z,50.91
2023-03-17T04:58:30.283Z,50.93
2023-03-17T05:00:57.315Z,50.84
2023-03-17T05:03:27.607Z,50.91
2023-03-17T05:05:54.398Z,51.12
2023-03-17T05:08:20.810Z,51.27
2023-03-17T05:10:47.183Z,51.33
2023-03-17T05:13:13.546Z,51.15
2023-03-17T05:15:39.893Z,51.49
2023-03-17T05:18:06.748Z,51.48
2023-03-17T05:20:33.379Z,51.63
2023-03-17T05:22:59.781Z,51.37
2023-03-17T05:25:26.108Z,51.20
2023-03-17T05:27:52.471Z,51.41
2023-03-17T05:30:18.830Z,51.68
2023-03-17T05:32:45.643Z,51.77
2023-03-17T05:35:12.018Z,51.69
2023-03-17T05:37:38.810Z,51.35
2023-03-17T05:40:05.123Z,51.54
2023-03-17T05:42:31.513Z,51.26
2023-03-17T05:44:57.883Z,51.21
2023-03-17T05:47:24.200Z,51.35
2023-03-17T05:49:50.911Z,51.44
2023-03-17T05:52:17.299Z,51.78
2023-03-17T05:54:44.836Z,51.48
2023-03-17T05:57:11.131Z,50.88
2023-03-17T05:59:37.509Z,50.85
2023-03-17T06:02:03.871Z,50.79
2023-03-17T06:04:30.304Z,51.20
2023-03-17T06:06:57.678Z,50.46
2023-03-17T06:09:24.075Z,50.68
2023-03-17T06:11:50.453Z,50.60
2023-03-17T06:14:16.844Z,50.73
2023-03-17T06:16:43.288Z,50.81
2023-03-17T06:19:09.591Z,51.50
2023-03-17T06:21:35.913Z,50.83
2023-03-17T06:24:02.236Z,50.88
2023-03-17T06:26:28.601Z,50.61
2023-03-17T06:28:54.935Z,50.89
2023-03-17T06:31:22.308Z,51.11
2023-03-17T06:33:48.693Z,50.70
2023-03-17T06:36:15.171Z,50.56
2023-03-17T06:38:41.679Z,50.19
2023-03-17T06:41:09.208Z,50.07
2023-03-17T06:43:36.293Z,50.16
2023-03-17T06:46:02.805Z,49.83
2023-03-17T06:48:29.202Z,49.28
2023-03-17T06:50:55.509Z,49.13
2023-03-17T06:53:21.997Z,48.55
2023-03-17T06:55:48.418Z,48.49
2023-03-17T06:58:16.010Z,48.60
2023-03-17T07:00:42.384Z,48.47
2023-03-17T07:03:10.030Z,47.69
2023-03-17T07:05:38.120Z,47.70
2023-03-17T07:08:04.432Z,46.86
2023-03-17T07:10:30.842Z,46.72
2023-03-17T07:12:57.264Z,46.83
2023-03-17T07:15:24.129Z,46.74
2023-03-17T07:17:50.548Z,46.61
2023-03-17T07:20:16.890Z,46.21
2023-03-17T07:22:43.536Z,45.96
2023-03-17T07:25:09.937Z,45.54
2023-03-17T07:27:36.294Z,45.02
2023-03-17T07:30:04.892Z,44.96
2023-03-17T07:32:31.431Z,44.31
2023-03-17T07:34:58.428Z,44.58
2023-03-17T07:37:25.009Z,44.54
2023-03-17T07:39:51.322Z,44.83
2023-03-17T07:42:17.752Z,45.15
2023-03-17T07:44:44.065Z,45.09
2023-03-17T07:47:10.831Z,45.29
2023-03-17T07:49:41.784Z,45.25
2023-03-17T07:52:08.626Z,45.58
2023-03-17T07:54:35.856Z,45.86
2023-03-17T07:57:02.191Z,45.82
2023-03-17T07:59:29.088Z,45.65
2023-03-17T08:01:55.597Z,45.43
2023-03-17T08:04:21.960Z,45.77
2023-03-17T08:06:48.341Z,45.59
2023-03-17T08:09:14.721Z,45.51
2023-03-17T08:11:41.262Z,45.18
2023-03-17T08:14:07.584Z,45.44
2023-03-17T08:16:33.953Z,44.63
2023-03-17T08:19:00.703Z,43.89
2023-03-17T08:21:27.477Z,43.19
2023-03-17T08:23:53.830Z,42.97
2023-03-17T08:26:20.779Z,42.65
2023-03-17T08:28:47.128Z,42.71
2023-03-17T08:31:13.900Z,42.15
2023-03-17T08:33:40.554Z,42.49
2023-03-17T08:36:06.883Z,42.39
2023-03-17T08:38:33.319Z,42.12
2023-03-17T08:40:59.722Z,41.66
2023-03-17T08:43:26.545Z,41.89
2023-03-17T08:45:52.940Z,41.62
2023-03-17T08:48:19.626Z,41.06
2023-03-17T08:50:46.085Z,41.42
2023-03-17T08:53:12.410Z,41.11
2023-03-17T08:55:38.782Z,40.65
2023-03-17T08:58:05.496Z,40.50
2023-03-17T09:00:32.293Z,40.39
2023-03-17T09:02:59.342Z,40.48
2023-03-17T09:05:26.746Z,40.81
2023-03-17T09:07:53.689Z,40.69
2023-03-17T09:10:22.767Z,40.38
2023-03-17T09:12:49.160Z,39.83
2023-03-17T09:15:16.736Z,39.47
2023-03-17T09:17:43.983Z,40.00
2023-03-17T09:20:11.562Z,40.00
2023-03-17T09:22:38.130Z,39.24
2023-03-17T09:25:04.497Z,39.33
2023-03-17T09:27:30.870Z,39.69
2023-03-17T09:29:57.180Z,37.70
2023-03-17T09:32:23.508Z,38.58
2023-03-17T09:34:51.603Z,38.86
2023-03-17T09:37:18.075Z,38.28
2023-03-17T09:39:44.435Z,37.30
2023-03-17T09:42:11.008Z,37.87
2023-03-17T09:44:38.636Z,37.04
2023-03-17T09:47:05.252Z,37.42
2023-03-17T09:49:31.961Z,37.54
2023-03-17T09:51:58.527Z,37.22
2023-03-17T09:54:24.835Z,36.58
2023-03-17T09:56:51.465Z,36.85
2023-03-17T09:59:18.270Z,36.49
2023-03-17T10:01:44.651Z,35.96
2023-03-17T10:04:10.985Z,36.52
2023-03-17T10:06:37.887Z,35.81
2023-03-17T10:09:04.414Z,36.99
2023-03-17T10:11:31.493Z,36.30
2023-03-17T10:13:58.016Z,35.90
2023-03-17T10:16:24.389Z,35.95
2023-03-17T10:18:51.118Z,35.68
2023-03-17T10:21:17.448Z,36.31
2023-03-17T10:23:43.783Z,35.59
2023-03-17T10:26:10.103Z,35.59
2023-03-17T10:28:38.851Z,35.40
2023-03-17T10:31:05.224Z,36.00
2023-03-17T10:33:32.776Z,35.60
2023-03-17T10:35:59.125Z,36.07
2023-03-17T10:38:25.794Z,36.53
2023-03-17T10:40:52.173Z,35.73
2023-03-17T10:43:19.069Z,35.42
2023-03-17T10:45:45.410Z,35.70
2023-03-17T10:48:12.397Z,36.18
2023-03-17T10:50:39.733Z,36.32
2023-03-17T10:53:06.133Z,35.50
2023-03-17T10:55:32.515Z,35.36
2023-03-17T10:57:58.831Z,35.35
2023-03-17T11:00:26.397Z,35.35
2023-03-17T11:02:52.744Z,34.94
2023-03-17T11:05:19.555Z,34.71
2023-03-17T11:07:45.910Z,34.48
2023-03-17T11:10:12.419Z,34.02
2023-03-17T11:12:39.416Z,33.90
2023-03-17T11:15:06.178Z,34.68
2023-03-17T11:17:32.729Z,34.81
2023-03-17T11:19:59.079Z,34.54
2023-03-17T11:22:25.900Z,34.35
2023-03-17T11:24:52.734Z,34.93
2023-03-17T11:27:19.067Z,35.59
2023-03-17T11:29:45.749Z,34.73
2023-03-17T11:32:12.115Z,35.12
2023-03-17T11:34:38.583Z,34.72
2023-03-17T11:37:07.099Z,34.90
2023-03-17T11:39:33.437Z,35.55
2023-03-17T11:41:59.823Z,35.17
2023-03-17T11:44:26.140Z,34.25
2023-03-17T11:46:52.504Z,33.80
2023-03-17T11:49:19.153Z,34.43
2023-03-17T11:51:45.475Z,34.47
2023-03-17T11:54:11.812Z,34.48
2023-03-17T11:56:38.262Z,35.16
2023-03-17T11:59:04.638Z,35.07
2023-03-17T12:01:32.515Z,35.59
2023-03-17T12:03:58.910Z,35.44
2023-03-17T12:06:25.809Z,35.44
2023-03-17T12:08:52.660Z,35.49
2023-03-17T12:11:18.993Z,34.90
2023-03-17T12:13:46.710Z,35.02
2023-03-17T12:16:13.174Z,34.79
2023-03-17T12:18:39.530Z,34.95
2023-03-17T12:21:05.861Z,35.21
2023-03-17T12:23:32.175Z,35.44
2023-03-17T12:25:59.418Z,35.25
2023-03-17T12:28:27.304Z,35.41
2023-03-17T12:30:54.453Z,35.05
2023-03-17T12:33:21.570Z,35.67
2023-03-17T12:35:48.133Z,35.37
2023-03-17T12:38:14.484Z,35.02
2023-03-17T12:40:40.827Z,34.94
2023-03-17T12:43:07.450Z,35.39
2023-03-17T12:45:34.065Z,35.85
2023-03-17T12:48:00.475Z,35.75
2023-03-17T12:50:26.774Z,35.08
2023-03-17T12:52:53.942Z,34.82
2023-03-17T12:55:20.617Z,34.92
2023-03-17T12:57:47.068Z,35.30
2023-03-17T13:00:13.384Z,35.28
2023-03-17T13:02:39.799Z,35.49
2023-03-17T13:05:06.158Z,34.91
2023-03-17T13:07:32.720Z,35.25
2023-03-17T13:09:59.038Z,35.18
2023-03-17T13:12:25.360Z,35.44
2023-03-17T13:14:51.781Z,35.51
2023-03-17T13:17:18.767Z,35.39
2023-03-17T13:19:45.074Z,35.34
2023-03-17T13:22:11.726Z,35.74
2023-03-17T13:24:38.020Z,36.27
2023-03-17T13:27:04.868Z,35.84
2023-03-17T13:29:31.847Z,36.04
2023-03-17T13:31:58.169Z,36.39
2023-03-17T13:34:24.498Z,36.33
2023-03-17T13:36:51.032Z,36.49
2023-03-17T13:39:20.524Z,36.52
2023-03-17T13:41:48.183Z,36.27
2023-03-17T13:44:15.473Z,36.36
2023-03-17T13:46:41.965Z,36.04
2023-03-17T13:49:09.042Z,36.20
2023-03-17T13:51:35.644Z,36.06
2023-03-17T13:54:01.967Z,36.46
2023-03-17T13:56:29.811Z,36.88
2023-03-17T13:58:56.308Z,36.57
2023-03-17T14:01:22.670Z,36.76
2023-03-17T14:03:49.216Z,36.91
2023-03-17T14:06:15.578Z,36.67
2023-03-17T14:08:42.086Z,36.96
2023-03-17T14:11:09.118Z,36.96
2023-03-17T14:13:35.508Z,37.24
2023-03-17T14:16:03.929Z,37.11
2023-03-17T14:18:30.896Z,37.10
2023-03-17T14:20:57.321Z,37.26
2023-03-17T14:23:24.126Z,37.33
2023-03-17T14:25:50.615Z,37.43
2023-03-17T14:28:18.311Z,37.08
2023-03-17T14:30:44.618Z,36.56
2023-03-17T14:33:11.199Z,36.42
2023-03-17T14:35:39.242Z,36.45
2023-03-17T14:38:06.677Z,36.12
2023-03-17T14:40:36.919Z,36.29
2023-03-17T14:43:03.319Z,36.42
2023-03-17T14:45:30.172Z,35.62
2023-03-17T14:47:56.898Z,35.62
2023-03-17T14:50:23.214Z,35.69
2023-03-17T14:52:49.567Z,35.78
2023-03-17T14:55:16.034Z,35.93
2023-03-17T14:57:42.412Z,35.92
2023-03-17T15:00:08.796Z,35.96
2023-03-17T15:02:35.374Z,35.52
2023-03-17T15:05:01.778Z,35.74
2023-03-17T15:07:28.102Z,36.29
2023-03-17T15:09:54.425Z,36.69
2023-03-17T15:12:20.932Z,36.93
2023-03-17T15:14:47.248Z,36.79
2023-03-17T15:17:13.555Z,37.38
2023-03-17T15:19:40.700Z,37.11
2023-03-17T15:22:07.006Z,37.48
2023-03-17T15:24:33.362Z,37.79
2023-03-17T15:27:00.665Z,37.76
2023-03-17T15:29:26.980Z,37.62
2023-03-17T15:31:53.426Z,37.89
2023-03-17T15:34:19.867Z,37.97
2023-03-17T15:36:47.647Z,38.61
2023-03-17T15:39:14.021Z,38.74
2023-03-17T15:41:40.492Z,38.89
2023-03-17T15:44:06.796Z,38.65
2023-03-17T15:46:33.809Z,38.54
2023-03-17T15:49:00.481Z,38.99
2023-03-17T15:51:26.824Z,38.51
2023-03-17T15:53:53.153Z,39.03
2023-03-17T15:56:19.454Z,39.15
2023-03-17T15:58:46.203Z,39.22
2023-03-17T16:01:12.680Z,39.58
2023-03-17T16:03:41.346Z,39.99
2023-03-17T16:06:08.158Z,39.39
2023-03-17T16:08:34.772Z,39.10
2023-03-17T16:11:01.399Z,39.66
2023-03-17T16:13:27.745Z,39.69
2023-03-17T16:15:54.285Z,39.80
2023-03-17T16:18:20.840Z,39.94
2023-03-17T16:20:47.187Z,39.85
2023-03-17T16:23:13.550Z,40.02
2023-03-17T16:25:39.893Z,39.89
2023-03-17T16:28:06.219Z,39.85
2023-03-17T16:30:32.840Z,40.19
2023-03-17T16:32:59.430Z,40.00
2023-03-17T16:35:25.974Z,40.29
2023-03-17T16:37:55.361Z,40.58
2023-03-17T16:40:22.091Z,40.64
2023-03-17T16:42:48.480Z,41.09
2023-03-17T16:45:14.791Z,42.12
2023-03-17T16:47:41.108Z,41.82
2023-03-17T16:50:07.451Z,42.08
2023-03-17T16:52:33.817Z,42.34
2023-03-17T16:55:00.231Z,42.38
2023-03-17T16:57:26.555Z,43.00
2023-03-17T16:59:52.871Z,42.84
2023-03-17T17:02:19.187Z,43.14
2023-03-17T17:04:45.600Z,43.10
2023-03-17T17:07:11.930Z,43.09
2023-03-17T17:09:38.530Z,43.35
2023-03-17T17:12:05.071Z,43.59
2023-03-17T17:14:31.714Z,43.95
2023-03-17T17:16:58.258Z,43.81
2023-03-17T17:19:24.989Z,44.00
2023-03-17T17:21:51.538Z,44.42
2023-03-17T17:24:18.076Z,44.22
2023-03-17T17:26:44.614Z,44.35
2023-03-17T17:29:11.187Z,44.60
2023-03-17T17:31:37.754Z,44.77
2023-03-17T17:34:04.376Z,44.69
2023-03-17T17:36:31.254Z,44.79
2023-03-17T17:38:57.874Z,45.15
2023-03-17T17:41:24.608Z,44.99
2023-03-17T17:43:51.279Z,45.11
2023-03-17T17:46:17.966Z,45.25
2023-03-17T17:48:47.416Z,45.13
2023-03-17T17:51:13.978Z,45.38
2023-03-17T17:53:40.508Z,45.41
2023-03-17T17:56:07.057Z,45.49
2023-03-17T17:58:35.485Z,45.71
2023-03-17T18:01:03.510Z,45.47
2023-03-17T18:03:32.083Z,45.70
2023-03-17T18:05:59.354Z,45.61
2023-03-17T18:08:25.855Z,45.92
2023-03-17T18:10:52.540Z,45.89
2023-03-17T18:13:18.903Z,45.87
2023-03-17T18:15:45.270Z,45.78
2023-03-17T18:18:11.640Z,45.64
2023-03-17T18:20:38.264Z,45.59
2023-03-17T18:23:04.602Z,45.95
2023-03-17T18:25:31.016Z,46.04
2023-03-17T18:27:57.491Z,45.92
2023-03-17T18:30:23.795Z,45.92
2023-03-17T18:32:50.178Z,45.91
2023-03-17T18:35:16.549Z,46.14
2023-03-17T18:37:42.958Z,46.26
2023-03-17T18:40:15.122Z,46.04
2023-03-17T18:42:42.816Z,46.17
2023-03-17T18:45:09.973Z,45.92
2023-03-17T18:47:41.124Z,46.47
2023-03-17T18:50:09.131Z,46.27
2023-03-17T18:52:35.473Z,45.99
2023-03-17T18:55:02.825Z,46.36
2023-03-17T18:57:29.132Z,46.09
2023-03-17T18:59:55.750Z,46.63
2023-03-17T19:02:22.117Z,46.06
2023-03-17T19:04:48.509Z,46.19
2023-03-17T19:07:14.840Z,46.32
2023-03-17T19:09:41.525Z,45.99
2023-03-17T19:12:07.955Z,46.04
2023-03-17T19:14:34.268Z,46.18
2023-03-17T19:17:00.619Z,46.03
2023-03-17T19:19:27.319Z,45.80
2023-03-17T19:21:53.705Z,45.91
2023-03-17T19:24:20.078Z,46.12
2023-03-17T19:26:46.453Z,45.79
2023-03-17T19:29:13.010Z,45.59
2023-03-17T19:31:42.664Z,45.65
2023-03-17T19:34:09.291Z,45.50
2023-03-17T19:36:36.103Z,45.35
2023-03-17T19:39:02.413Z,45.25
2023-03-17T19:41:32.450Z,45.18
2023-03-17T19:43:58.783Z,44.94
2023-03-17T19:46:25.140Z,44.97
2023-03-17T19:48:51.560Z,45.40
2023-03-17T19:51:18.228Z,45.15
2023-03-17T19:53:44.538Z,45.22
2023-03-17T19:56:11.228Z,45.00
2023-03-17T19:58:37.586Z,44.98
2023-03-17T20:01:03.922Z,44.99
2023-03-17T20:03:30.618Z,44.90
2023-03-17T20:05:56.956Z,44.84
2023-03-17T20:08:23.267Z,45.21
2023-03-17T20:10:49.588Z,44.92
2023-03-17T20:13:15.889Z,44.67
2023-03-17T20:15:42.210Z,44.51
2023-03-17T20:18:08.581Z,44.29
2023-03-17T20:20:35.232Z,44.50
2023-03-17T20:23:01.534Z,44.47
2023-03-17T20:25:27.868Z,44.54
2023-03-17T20:27:54.192Z,44.14
2023-03-17T20:30:20.515Z,44.37
2023-03-17T20:32:46.853Z,43.98
2023-03-17T20:35:13.220Z,43.92
2023-03-17T20:37:40.007Z,43.85
2023-03-17T20:40:08.480Z,43.98
2023-03-17T20:42:34.824Z,43.86
2023-03-17T20:45:03.352Z,43.96
2023-03-17T20:47:29.858Z,44.02
2023-03-17T20:49:58.775Z,44.23
2023-03-17T20:52:25.129Z,43.71
2023-03-17T20:54:51.580Z,43.65
2023-03-17T20:57:18.815Z,43.42
2023-03-17T20:59:45.274Z,43.26
2023-03-17T21:02:11.659Z,43.28
2023-03-17T21:04:37.969Z,42.91
2023-03-17T21:07:04.845Z,43.22
2023-03-17T21:09:31.172Z,43.30
2023-03-17T21:11:57.473Z,43.01
2023-03-17T21:14:23.835Z,43.05
2023-03-17T21:16:50.493Z,43.09
2023-03-17T21:19:17.431Z,42.74
2023-03-17T21:21:44.689Z,43.29
2023-03-17T21:24:11.016Z,42.94
2023-03-17T21:26:37.395Z,42.93
2023-03-17T21:29:03.826Z,43.02
2023-03-17T21:31:30.203Z,42.50
2023-03-17T21:33:56.531Z,42.68
2023-03-17T21:36:22.861Z,42.27
2023-03-17T21:38:49.210Z,42.41
2023-03-17T21:41:15.522Z,42.23
2023-03-17T21:43:41.832Z,42.45
2023-03-17T21:46:08.224Z,42.29
2023-03-17T21:48:34.602Z,42.16
2023-03-17T21:51:00.937Z,42.42
2023-03-17T21:53:27.249Z,42.07
2023-03-17T21:55:53.979Z,42.58
2023-03-17T21:58:21.333Z,41.85
2023-03-17T22:00:52.416Z,42.02
2023-03-17T22:03:18.903Z,42.16
2023-03-17T22:05:47.249Z,41.98
2023-03-17T22:08:13.627Z,42.06
2023-03-17T22:10:39.951Z,42.06
2023-03-17T22:13:06.582Z,42.27
2023-03-17T22:15:32.904Z,42.50
2023-03-17T22:18:03.182Z,42.49
2023-03-17T22:20:30.190Z,42.42
2023-03-17T22:22:56.846Z,42.07
2023-03-17T22:25:23.650Z,42.27
2023-03-17T22:27:49.984Z,42.57
2023-03-17T22:30:17.005Z,42.59
2023-03-17T22:32:43.355Z,42.66
2023-03-17T22:35:09.713Z,42.38
2023-03-17T22:37:36.413Z,42.70
2023-03-17T22:40:06.167Z,42.50
2023-03-17T22:42:32.485Z,42.62
2023-03-17T22:44:58.797Z,42.78
2023-03-17T22:47:25.145Z,42.60
2023-03-17T22:49:51.532Z,42.40
2023-03-17T22:52:17.870Z,42.14
2023-03-17T22:54:44.189Z,42.35
2023-03-17T22:57:10.535Z,42.71
2023-03-17T22:59:36.834Z,42.24
2023-03-17T23:02:03.209Z,42.48
2023-03-17T23:04:29.575Z,42.30
2023-03-17T23:06:56.447Z,42.30
2023-03-17T23:09:23.228Z,42.34
2023-03-17T23:11:49.566Z,42.21
2023-03-17T23:14:16.400Z,42.34
2023-03-17T23:16:43.091Z,42.37
2023-03-17T23:19:09.825Z,42.50
2023-03-17T23:21:36.344Z,42.39
2023-03-17T23:24:03.882Z,42.64
2023-03-17T23:26:30.267Z,43.24
2023-03-17T23:28:56.656Z,43.01
2023-03-17T23:31:23.175Z,42.68
2023-03-17T23:33:49.603Z,43.02
2023-03-17T23:36:16.322Z,42.89
2023-03-17T23:38:42.831Z,42.92
2023-03-17T23:41:09.168Z,42.91
2023-03-17T23:43:35.741Z,43.09
2023-03-17T23:46:02.117Z,43.00
2023-03-17T23:48:29.013Z,43.26
2023-03-17T23:50:55.387Z,42.94
2023-03-17T23:53:21.755Z,43.36
2023-03-17T23:55:48.099Z,43.31
2023-03-17T23:58:14.436Z,43.26
